sensor_id;sensor_type;location;lat;lon;timestamp;P1;durP1;ratioP1;P2;durP2;ratioP2
5684;SDS011;2865;53.114;9.130;2023-01-25T00:00:11;13.53;;;10.43;;
5684;SDS011;2865;53.114;9.130;2023-01-25T00:02:37;11.57;;;9.77;;
5684;SDS011;2865;53.114;9.130;2023-01-25T00:05:03;13.43;;;11.73;;
5684;SDS011;2865;53.114;9.130;2023-01-25T00:07:28;13.13;;;10.80;;
5684;SDS011;2865;53.114;9.130;2023-01-25T00:09:54;14.43;;;11.30;;
5684;SDS011;2865;53.114;9.130;2023-01-25T00:12:19;13.30;;;10.90;;
5684;SDS011;2865;53.114;9.130;2023-01-25T00:14:45;12.47;;;10.83;;
5684;SDS011;2865;53.114;9.130;2023-01-25T00:17:10;12.77;;;11.40;;
5684;SDS011;2865;53.114;9.130;2023-01-25T00:19:36;12.30;;;10.30;;
5684;SDS011;2865;53.114;9.130;2023-01-25T00:22:01;16.67;;;11.70;;
5684;SDS011;2865;53.114;9.130;2023-01-25T00:24:26;13.03;;;10.73;;
5684;SDS011;2865;53.114;9.130;2023-01-25T00:26:52;12.63;;;10.80;;
5684;SDS011;2865;53.114;9.130;2023-01-25T00:29:17;20.37;;;11.80;;
5684;SDS011;2865;53.114;9.130;2023-01-25T00:31:52;12.23;;;10.97;;
5684;SDS011;2865;53.114;9.130;2023-01-25T00:37:13;12.03;;;10.77;;
5684;SDS011;2865;53.114;9.130;2023-01-25T00:39:42;13.00;;;10.93;;
5684;SDS011;2865;53.114;9.130;2023-01-25T00:42:09;12.50;;;10.60;;
5684;SDS011;2865;53.114;9.130;2023-01-25T00:44:34;14.13;;;11.40;;
5684;SDS011;2865;53.114;9.130;2023-01-25T00:47:00;13.50;;;10.87;;
5684;SDS011;2865;53.114;9.130;2023-01-25T00:49:26;14.40;;;10.87;;
5684;SDS011;2865;53.114;9.130;2023-01-25T00:51:50;15.03;;;11.00;;
5684;SDS011;2865;53.114;9.130;2023-01-25T00:54:16;12.47;;;10.80;;
5684;SDS011;2865;53.114;9.130;2023-01-25T00:56:41;13.57;;;10.30;;
5684;SDS011;2865;53.114;9.130;2023-01-25T00:59:08;15.37;;;10.93;;
5684;SDS011;2865;53.114;9.130;2023-01-25T01:01:33;14.20;;;11.03;;
5684;SDS011;2865;53.114;9.130;2023-01-25T01:03:57;14.33;;;11.10;;
5684;SDS011;2865;53.114;9.130;2023-01-25T01:06:23;12.67;;;11.33;;
5684;SDS011;2865;53.114;9.130;2023-01-25T01:08:48;14.30;;;11.47;;
5684;SDS011;2865;53.114;9.130;2023-01-25T01:11:13;12.63;;;11.33;;
5684;SDS011;2865;53.114;9.130;2023-01-25T01:13:39;13.33;;;11.00;;
5684;SDS011;2865;53.114;9.130;2023-01-25T01:16:05;15.57;;;12.37;;
5684;SDS011;2865;53.114;9.130;2023-01-25T01:18:37;15.97;;;12.70;;
5684;SDS011;2865;53.114;9.130;2023-01-25T01:21:02;12.03;;;10.73;;
5684;SDS011;2865;53.114;9.130;2023-01-25T01:23:28;14.20;;;12.30;;
5684;SDS011;2865;53.114;9.130;2023-01-25T01:25:53;13.87;;;11.23;;
5684;SDS011;2865;53.114;9.130;2023-01-25T01:28:19;17.20;;;12.00;;
5684;SDS011;2865;53.114;9.130;2023-01-25T01:30:44;14.63;;;12.20;;
5684;SDS011;2865;53.114;9.130;2023-01-25T01:33:09;14.83;;;13.23;;
5684;SDS011;2865;53.114;9.130;2023-01-25T01:35:35;19.70;;;12.67;;
5684;SDS011;2865;53.114;9.130;2023-01-25T01:38:00;17.27;;;13.60;;
5684;SDS011;2865;53.114;9.130;2023-01-25T01:40:26;15.20;;;13.00;;
5684;SDS011;2865;53.114;9.130;2023-01-25T01:42:56;18.07;;;13.60;;
5684;SDS011;2865;53.114;9.130;2023-01-25T01:45:47;18.20;;;14.43;;
5684;SDS011;2865;53.114;9.130;2023-01-25T01:48:16;16.77;;;13.60;;
5684;SDS011;2865;53.114;9.130;2023-01-25T01:50:56;17.63;;;14.03;;
5684;SDS011;2865;53.114;9.130;2023-01-25T01:53:23;19.23;;;15.00;;
5684;SDS011;2865;53.114;9.130;2023-01-25T01:55:48;17.90;;;15.50;;
5684;SDS011;2865;53.114;9.130;2023-01-25T01:58:13;17.73;;;13.23;;
5684;SDS011;2865;53.114;9.130;2023-01-25T02:00:39;17.63;;;13.57;;
5684;SDS011;2865;53.114;9.130;2023-01-25T02:03:04;17.10;;;13.93;;
5684;SDS011;2865;53.114;9.130;2023-01-25T02:06:02;17.40;;;14.77;;
5684;SDS011;2865;53.114;9.130;2023-01-25T02:08:18;18.30;;;14.67;;
5684;SDS011;2865;53.114;9.130;2023-01-25T02:10:43;18.40;;;14.90;;
5684;SDS011;2865;53.114;9.130;2023-01-25T02:13:09;16.83;;;14.00;;
5684;SDS011;2865;53.114;9.130;2023-01-25T02:15:40;18.50;;;14.50;;
5684;SDS011;2865;53.114;9.130;2023-01-25T02:18:03;19.33;;;14.83;;
5684;SDS011;2865;53.114;9.130;2023-01-25T02:20:33;19.47;;;15.43;;
5684;SDS011;2865;53.114;9.130;2023-01-25T02:22:58;19.10;;;14.83;;
5684;SDS011;2865;53.114;9.130;2023-01-25T02:25:24;16.23;;;14.33;;
5684;SDS011;2865;53.114;9.130;2023-01-25T02:27:51;17.97;;;15.00;;
5684;SDS011;2865;53.114;9.130;2023-01-25T02:30:15;15.87;;;13.20;;
5684;SDS011;2865;53.114;9.130;2023-01-25T02:32:41;17.83;;;13.83;;
5684;SDS011;2865;53.114;9.130;2023-01-25T02:35:07;14.73;;;12.93;;
5684;SDS011;2865;53.114;9.130;2023-01-25T02:37:33;16.70;;;13.43;;
5684;SDS011;2865;53.114;9.130;2023-01-25T02:39:58;19.80;;;14.20;;
5684;SDS011;2865;53.114;9.130;2023-01-25T02:42:23;18.93;;;14.30;;
5684;SDS011;2865;53.114;9.130;2023-01-25T02:44:49;15.70;;;13.00;;
5684;SDS011;2865;53.114;9.130;2023-01-25T02:47:14;18.77;;;13.53;;
5684;SDS011;2865;53.114;9.130;2023-01-25T02:49:39;19.90;;;15.57;;
5684;SDS011;2865;53.114;9.130;2023-01-25T02:52:05;18.47;;;14.00;;
5684;SDS011;2865;53.114;9.130;2023-01-25T02:54:30;21.20;;;13.97;;
5684;SDS011;2865;53.114;9.130;2023-01-25T02:56:56;17.20;;;13.93;;
5684;SDS011;2865;53.114;9.130;2023-01-25T02:59:21;20.00;;;14.87;;
5684;SDS011;2865;53.114;9.130;2023-01-25T03:01:46;15.97;;;13.83;;
5684;SDS011;2865;53.114;9.130;2023-01-25T03:04:12;17.60;;;13.57;;
5684;SDS011;2865;53.114;9.130;2023-01-25T03:06:37;19.23;;;15.70;;
5684;SDS011;2865;53.114;9.130;2023-01-25T03:09:03;19.20;;;16.70;;
5684;SDS011;2865;53.114;9.130;2023-01-25T03:11:28;19.57;;;15.67;;
5684;SDS011;2865;53.114;9.130;2023-01-25T03:13:53;18.50;;;14.80;;
5684;SDS011;2865;53.114;9.130;2023-01-25T03:16:19;19.23;;;14.97;;
5684;SDS011;2865;53.114;9.130;2023-01-25T03:18:44;24.70;;;15.73;;
5684;SDS011;2865;53.114;9.130;2023-01-25T03:21:11;19.90;;;15.73;;
5684;SDS011;2865;53.114;9.130;2023-01-25T03:23:35;23.17;;;16.67;;
5684;SDS011;2865;53.114;9.130;2023-01-25T03:26:04;23.00;;;16.83;;
5684;SDS011;2865;53.114;9.130;2023-01-25T03:28:32;19.80;;;16.63;;
5684;SDS011;2865;53.114;9.130;2023-01-25T03:30:57;22.97;;;16.40;;
5684;SDS011;2865;53.114;9.130;2023-01-25T03:33:22;19.50;;;16.10;;
5684;SDS011;2865;53.114;9.130;2023-01-25T03:35:50;21.90;;;17.30;;
5684;SDS011;2865;53.114;9.130;2023-01-25T03:38:15;19.17;;;15.60;;
5684;SDS011;2865;53.114;9.130;2023-01-25T03:40:40;25.60;;;17.90;;
5684;SDS011;2865;53.114;9.130;2023-01-25T03:43:06;22.63;;;18.00;;
5684;SDS011;2865;53.114;9.130;2023-01-25T03:45:31;20.73;;;16.10;;
5684;SDS011;2865;53.114;9.130;2023-01-25T03:47:57;25.00;;;17.40;;
5684;SDS011;2865;53.114;9.130;2023-01-25T03:50:22;26.03;;;17.63;;
5684;SDS011;2865;53.114;9.130;2023-01-25T03:52:48;26.80;;;19.83;;
5684;SDS011;2865;53.114;9.130;2023-01-25T03:55:13;26.10;;;19.40;;
5684;SDS011;2865;53.114;9.130;2023-01-25T03:57:38;24.23;;;18.47;;
5684;SDS011;2865;53.114;9.130;2023-01-25T04:00:04;26.33;;;18.57;;
5684;SDS011;2865;53.114;9.130;2023-01-25T04:02:30;26.20;;;19.83;;
5684;SDS011;2865;53.114;9.130;2023-01-25T04:04:56;26.60;;;19.03;;
5684;SDS011;2865;53.114;9.130;2023-01-25T04:07:21;34.73;;;21.37;;
5684;SDS011;2865;53.114;9.130;2023-01-25T04:09:47;32.90;;;21.10;;
5684;SDS011;2865;53.114;9.130;2023-01-25T04:12:12;28.40;;;19.83;;
5684;SDS011;2865;53.114;9.130;2023-01-25T04:14:37;33.50;;;21.30;;
5684;SDS011;2865;53.114;9.130;2023-01-25T04:17:03;32.03;;;19.80;;
5684;SDS011;2865;53.114;9.130;2023-01-25T04:19:28;30.80;;;20.40;;
5684;SDS011;2865;53.114;9.130;2023-01-25T04:21:54;34.33;;;23.00;;
5684;SDS011;2865;53.114;9.130;2023-01-25T04:24:19;37.23;;;23.40;;
5684;SDS011;2865;53.114;9.130;2023-01-25T04:26:44;32.30;;;22.03;;
5684;SDS011;2865;53.114;9.130;2023-01-25T04:29:10;32.87;;;22.70;;
5684;SDS011;2865;53.114;9.130;2023-01-25T04:31:35;33.93;;;20.83;;
5684;SDS011;2865;53.114;9.130;2023-01-25T04:34:01;34.80;;;24.53;;
5684;SDS011;2865;53.114;9.130;2023-01-25T04:36:26;40.43;;;23.70;;
5684;SDS011;2865;53.114;9.130;2023-01-25T04:38:51;32.20;;;21.10;;
5684;SDS011;2865;53.114;9.130;2023-01-25T04:41:17;29.10;;;21.10;;
5684;SDS011;2865;53.114;9.130;2023-01-25T04:43:42;31.20;;;20.87;;
5684;SDS011;2865;53.114;9.130;2023-01-25T04:46:08;28.30;;;20.60;;
5684;SDS011;2865;53.114;9.130;2023-01-25T04:48:33;35.23;;;22.20;;
5684;SDS011;2865;53.114;9.130;2023-01-25T04:50:58;29.00;;;19.73;;
5684;SDS011;2865;53.114;9.130;2023-01-25T04:53:24;30.37;;;20.63;;
5684;SDS011;2865;53.114;9.130;2023-01-25T04:55:49;28.10;;;18.53;;
5684;SDS011;2865;53.114;9.130;2023-01-25T04:58:14;28.03;;;20.27;;
5684;SDS011;2865;53.114;9.130;2023-01-25T05:00:40;28.20;;;19.80;;
5684;SDS011;2865;53.114;9.130;2023-01-25T05:03:05;28.10;;;19.10;;
5684;SDS011;2865;53.114;9.130;2023-01-25T05:05:31;30.30;;;20.23;;
5684;SDS011;2865;53.114;9.130;2023-01-25T05:07:56;27.27;;;18.93;;
5684;SDS011;2865;53.114;9.130;2023-01-25T05:10:22;28.17;;;20.07;;
5684;SDS011;2865;53.114;9.130;2023-01-25T05:12:47;30.83;;;20.77;;
5684;SDS011;2865;53.114;9.130;2023-01-25T05:15:13;25.97;;;19.73;;
5684;SDS011;2865;53.114;9.130;2023-01-25T05:17:38;27.37;;;19.57;;
5684;SDS011;2865;53.114;9.130;2023-01-25T05:20:04;30.10;;;21.13;;
5684;SDS011;2865;53.114;9.130;2023-01-25T05:22:30;29.23;;;20.63;;
5684;SDS011;2865;53.114;9.130;2023-01-25T05:24:55;26.10;;;18.77;;
5684;SDS011;2865;53.114;9.130;2023-01-25T05:27:21;36.87;;;21.57;;
5684;SDS011;2865;53.114;9.130;2023-01-25T05:29:46;32.83;;;23.00;;
5684;SDS011;2865;53.114;9.130;2023-01-25T05:32:14;31.80;;;20.23;;
5684;SDS011;2865;53.114;9.130;2023-01-25T05:34:39;32.63;;;22.33;;
5684;SDS011;2865;53.114;9.130;2023-01-25T05:37:04;28.20;;;19.60;;
5684;SDS011;2865;53.114;9.130;2023-01-25T05:39:29;31.17;;;22.13;;
5684;SDS011;2865;53.114;9.130;2023-01-25T05:41:55;41.27;;;21.60;;
5684;SDS011;2865;53.114;9.130;2023-01-25T05:44:20;28.77;;;19.87;;
5684;SDS011;2865;53.114;9.130;2023-01-25T05:46:45;30.83;;;21.33;;
5684;SDS011;2865;53.114;9.130;2023-01-25T05:49:11;31.43;;;20.90;;
5684;SDS011;2865;53.114;9.130;2023-01-25T05:51:36;25.17;;;18.67;;
5684;SDS011;2865;53.114;9.130;2023-01-25T05:54:02;28.40;;;19.00;;
5684;SDS011;2865;53.114;9.130;2023-01-25T05:56:27;27.87;;;19.80;;
5684;SDS011;2865;53.114;9.130;2023-01-25T05:58:53;30.83;;;20.03;;
5684;SDS011;2865;53.114;9.130;2023-01-25T06:01:19;26.20;;;19.23;;
5684;SDS011;2865;53.114;9.130;2023-01-25T06:03:44;30.77;;;21.37;;
5684;SDS011;2865;53.114;9.130;2023-01-25T06:06:09;35.40;;;23.23;;
5684;SDS011;2865;53.114;9.130;2023-01-25T06:08:34;34.53;;;23.00;;
5684;SDS011;2865;53.114;9.130;2023-01-25T06:11:05;32.10;;;22.23;;
5684;SDS011;2865;53.114;9.130;2023-01-25T06:13:25;27.87;;;19.07;;
5684;SDS011;2865;53.114;9.130;2023-01-25T06:15:52;27.33;;;20.23;;
5684;SDS011;2865;53.114;9.130;2023-01-25T06:18:20;32.93;;;20.73;;
5684;SDS011;2865;53.114;9.130;2023-01-25T06:20:46;27.70;;;18.73;;
5684;SDS011;2865;53.114;9.130;2023-01-25T06:23:11;28.37;;;20.37;;
5684;SDS011;2865;53.114;9.130;2023-01-25T06:25:36;29.60;;;19.47;;
5684;SDS011;2865;53.114;9.130;2023-01-25T06:28:02;27.57;;;19.97;;
5684;SDS011;2865;53.114;9.130;2023-01-25T06:30:27;31.23;;;20.90;;
5684;SDS011;2865;53.114;9.130;2023-01-25T06:32:53;29.70;;;20.53;;
5684;SDS011;2865;53.114;9.130;2023-01-25T06:35:19;29.00;;;20.57;;
5684;SDS011;2865;53.114;9.130;2023-01-25T06:37:44;28.57;;;18.57;;
5684;SDS011;2865;53.114;9.130;2023-01-25T06:40:10;29.17;;;20.27;;
5684;SDS011;2865;53.114;9.130;2023-01-25T06:42:36;28.23;;;17.40;;
5684;SDS011;2865;53.114;9.130;2023-01-25T06:45:01;25.50;;;17.77;;
5684;SDS011;2865;53.114;9.130;2023-01-25T06:47:26;28.67;;;19.80;;
5684;SDS011;2865;53.114;9.130;2023-01-25T06:49:52;23.60;;;17.10;;
5684;SDS011;2865;53.114;9.130;2023-01-25T06:52:17;29.03;;;19.27;;
5684;SDS011;2865;53.114;9.130;2023-01-25T06:54:42;27.03;;;18.60;;
5684;SDS011;2865;53.114;9.130;2023-01-25T06:57:08;29.57;;;20.80;;
5684;SDS011;2865;53.114;9.130;2023-01-25T06:59:34;31.83;;;20.70;;
5684;SDS011;2865;53.114;9.130;2023-01-25T07:01:59;29.87;;;19.07;;
5684;SDS011;2865;53.114;9.130;2023-01-25T07:04:24;25.87;;;17.90;;
5684;SDS011;2865;53.114;9.130;2023-01-25T07:06:50;33.53;;;20.73;;
5684;SDS011;2865;53.114;9.130;2023-01-25T07:09:15;31.50;;;19.07;;
5684;SDS011;2865;53.114;9.130;2023-01-25T07:11:41;26.77;;;17.83;;
5684;SDS011;2865;53.114;9.130;2023-01-25T07:14:06;27.50;;;19.90;;
5684;SDS011;2865;53.114;9.130;2023-01-25T07:16:32;23.97;;;18.13;;
5684;SDS011;2865;53.114;9.130;2023-01-25T07:18:57;28.47;;;20.90;;
5684;SDS011;2865;53.114;9.130;2023-01-25T07:21:22;33.37;;;21.47;;
5684;SDS011;2865;53.114;9.130;2023-01-25T07:23:48;30.30;;;20.87;;
5684;SDS011;2865;53.114;9.130;2023-01-25T07:26:16;29.10;;;19.70;;
5684;SDS011;2865;53.114;9.130;2023-01-25T07:28:41;29.55;;;20.35;;
5684;SDS011;2865;53.114;9.130;2023-01-25T07:31:06;34.70;;;21.80;;
5684;SDS011;2865;53.114;9.130;2023-01-25T07:33:34;29.90;;;18.30;;
5684;SDS011;2865;53.114;9.130;2023-01-25T07:35:59;31.70;;;19.57;;
5684;SDS011;2865;53.114;9.130;2023-01-25T07:38:26;28.60;;;19.47;;
5684;SDS011;2865;53.114;9.130;2023-01-25T07:40:52;27.60;;;19.00;;
5684;SDS011;2865;53.114;9.130;2023-01-25T07:43:17;37.93;;;18.90;;
5684;SDS011;2865;53.114;9.130;2023-01-25T07:45:42;26.93;;;18.50;;
5684;SDS011;2865;53.114;9.130;2023-01-25T07:48:08;33.20;;;21.50;;
5684;SDS011;2865;53.114;9.130;2023-01-25T07:50:34;24.57;;;17.57;;
5684;SDS011;2865;53.114;9.130;2023-01-25T07:52:59;29.90;;;19.07;;
5684;SDS011;2865;53.114;9.130;2023-01-25T07:55:25;27.23;;;17.70;;
5684;SDS011;2865;53.114;9.130;2023-01-25T07:57:53;28.07;;;19.00;;
5684;SDS011;2865;53.114;9.130;2023-01-25T08:00:16;27.90;;;18.90;;
5684;SDS011;2865;53.114;9.130;2023-01-25T08:02:42;24.30;;;17.90;;
5684;SDS011;2865;53.114;9.130;2023-01-25T08:05:08;25.50;;;18.23;;
5684;SDS011;2865;53.114;9.130;2023-01-25T08:07:33;27.67;;;19.20;;
5684;SDS011;2865;53.114;9.130;2023-01-25T08:09:59;27.83;;;18.87;;
5684;SDS011;2865;53.114;9.130;2023-01-25T08:12:24;27.70;;;18.90;;
5684;SDS011;2865;53.114;9.130;2023-01-25T08:14:50;27.55;;;19.23;;
5684;SDS011;2865;53.114;9.130;2023-01-25T08:17:16;29.83;;;19.90;;
5684;SDS011;2865;53.114;9.130;2023-01-25T08:19:41;27.43;;;18.83;;
5684;SDS011;2865;53.114;9.130;2023-01-25T08:22:07;26.97;;;18.40;;
5684;SDS011;2865;53.114;9.130;2023-01-25T08:24:32;26.67;;;18.17;;
5684;SDS011;2865;53.114;9.130;2023-01-25T08:26:57;26.37;;;18.50;;
5684;SDS011;2865;53.114;9.130;2023-01-25T08:29:23;22.67;;;17.57;;
5684;SDS011;2865;53.114;9.130;2023-01-25T08:31:48;26.43;;;16.50;;
5684;SDS011;2865;53.114;9.130;2023-01-25T08:34:14;25.13;;;17.67;;
5684;SDS011;2865;53.114;9.130;2023-01-25T08:36:39;24.30;;;17.60;;
5684;SDS011;2865;53.114;9.130;2023-01-25T08:39:06;23.87;;;17.27;;
5684;SDS011;2865;53.114;9.130;2023-01-25T08:41:30;27.33;;;18.17;;
5684;SDS011;2865;53.114;9.130;2023-01-25T08:43:56;28.20;;;16.50;;
5684;SDS011;2865;53.114;9.130;2023-01-25T08:46:22;27.50;;;18.10;;
5684;SDS011;2865;53.114;9.130;2023-01-25T08:48:46;23.93;;;16.97;;
5684;SDS011;2865;53.114;9.130;2023-01-25T08:51:12;27.93;;;19.30;;
5684;SDS011;2865;53.114;9.130;2023-01-25T08:53:37;26.70;;;18.77;;
5684;SDS011;2865;53.114;9.130;2023-01-25T08:56:03;27.97;;;19.10;;
5684;SDS011;2865;53.114;9.130;2023-01-25T08:58:28;22.60;;;16.97;;
5684;SDS011;2865;53.114;9.130;2023-01-25T09:00:53;26.07;;;18.47;;
5684;SDS011;2865;53.114;9.130;2023-01-25T09:03:19;27.50;;;19.70;;
5684;SDS011;2865;53.114;9.130;2023-01-25T09:05:44;26.67;;;20.00;;
5684;SDS011;2865;53.114;9.130;2023-01-25T09:08:09;28.80;;;18.40;;
5684;SDS011;2865;53.114;9.130;2023-01-25T09:10:35;28.47;;;20.57;;
5684;SDS011;2865;53.114;9.130;2023-01-25T09:13:00;26.70;;;18.80;;
5684;SDS011;2865;53.114;9.130;2023-01-25T09:15:26;24.20;;;18.17;;
5684;SDS011;2865;53.114;9.130;2023-01-25T09:17:52;27.17;;;19.40;;
5684;SDS011;2865;53.114;9.130;2023-01-25T09:20:16;25.97;;;18.30;;
5684;SDS011;2865;53.114;9.130;2023-01-25T09:22:42;27.67;;;19.03;;
5684;SDS011;2865;53.114;9.130;2023-01-25T09:25:07;27.60;;;19.93;;
5684;SDS011;2865;53.114;9.130;2023-01-25T09:27:32;25.23;;;19.27;;
5684;SDS011;2865;53.114;9.130;2023-01-25T09:29:58;32.10;;;20.90;;
5684;SDS011;2865;53.114;9.130;2023-01-25T09:32:23;29.03;;;19.67;;
5684;SDS011;2865;53.114;9.130;2023-01-25T09:34:49;30.90;;;21.13;;
5684;SDS011;2865;53.114;9.130;2023-01-25T09:37:14;32.63;;;21.10;;
5684;SDS011;2865;53.114;9.130;2023-01-25T09:39:39;30.07;;;20.83;;
5684;SDS011;2865;53.114;9.130;2023-01-25T09:42:13;30.40;;;20.67;;
5684;SDS011;2865;53.114;9.130;2023-01-25T09:44:58;31.90;;;21.90;;
5684;SDS011;2865;53.114;9.130;2023-01-25T09:52:55;39.77;;;24.47;;
5684;SDS011;2865;53.114;9.130;2023-01-25T09:55:39;37.47;;;23.20;;
5684;SDS011;2865;53.114;9.130;2023-01-25T09:58:08;37.53;;;22.90;;
5684;SDS011;2865;53.114;9.130;2023-01-25T10:00:31;31.83;;;21.70;;
5684;SDS011;2865;53.114;9.130;2023-01-25T10:02:58;33.00;;;22.27;;
5684;SDS011;2865;53.114;9.130;2023-01-25T10:05:41;34.20;;;21.90;;
5684;SDS011;2865;53.114;9.130;2023-01-25T10:08:09;33.70;;;22.67;;
5684;SDS011;2865;53.114;9.130;2023-01-25T10:10:36;36.30;;;23.43;;
5684;SDS011;2865;53.114;9.130;2023-01-25T10:13:00;31.73;;;21.90;;
5684;SDS011;2865;53.114;9.130;2023-01-25T10:15:28;32.17;;;21.80;;
5684;SDS011;2865;53.114;9.130;2023-01-25T10:18:15;35.37;;;22.07;;
5684;SDS011;2865;53.114;9.130;2023-01-25T10:20:40;34.67;;;23.17;;
5684;SDS011;2865;53.114;9.130;2023-01-25T10:23:23;33.33;;;22.93;;
5684;SDS011;2865;53.114;9.130;2023-01-25T10:25:53;36.70;;;22.40;;
5684;SDS011;2865;53.114;9.130;2023-01-25T10:28:22;35.40;;;21.13;;
5684;SDS011;2865;53.114;9.130;2023-01-25T10:30:49;33.47;;;20.70;;
5684;SDS011;2865;53.114;9.130;2023-01-25T10:33:18;34.17;;;21.43;;
5684;SDS011;2865;53.114;9.130;2023-01-25T10:35:44;35.07;;;23.13;;
5684;SDS011;2865;53.114;9.130;2023-01-25T10:38:11;34.53;;;20.80;;
5684;SDS011;2865;53.114;9.130;2023-01-25T10:40:38;33.42;;;20.88;;
5684;SDS011;2865;53.114;9.130;2023-01-25T10:43:12;38.93;;;22.20;;
5684;SDS011;2865;53.114;9.130;2023-01-25T10:45:36;32.17;;;22.30;;
5684;SDS011;2865;53.114;9.130;2023-01-25T10:48:03;34.53;;;22.50;;
5684;SDS011;2865;53.114;9.130;2023-01-25T10:53:15;35.47;;;20.33;;
5684;SDS011;2865;53.114;9.130;2023-01-25T10:55:31;38.13;;;21.83;;
5684;SDS011;2865;53.114;9.130;2023-01-25T10:57:57;30.03;;;19.73;;
5684;SDS011;2865;53.114;9.130;2023-01-25T11:00:25;30.93;;;19.07;;
5684;SDS011;2865;53.114;9.130;2023-01-25T11:02:49;29.27;;;18.73;;
5684;SDS011;2865;53.114;9.130;2023-01-25T11:05:25;30.53;;;19.80;;
5684;SDS011;2865;53.114;9.130;2023-01-25T11:07:51;27.13;;;18.70;;
5684;SDS011;2865;53.114;9.130;2023-01-25T11:12:48;34.30;;;20.53;;
5684;SDS011;2865;53.114;9.130;2023-01-25T11:17:47;26.40;;;19.03;;
5684;SDS011;2865;53.114;9.130;2023-01-25T11:20:16;30.93;;;19.70;;
5684;SDS011;2865;53.114;9.130;2023-01-25T11:25:25;27.60;;;18.23;;
5684;SDS011;2865;53.114;9.130;2023-01-25T11:28:08;32.40;;;21.00;;
5684;SDS011;2865;53.114;9.130;2023-01-25T11:30:19;28.27;;;20.00;;
5684;SDS011;2865;53.114;9.130;2023-01-25T11:32:44;29.33;;;18.27;;
5684;SDS011;2865;53.114;9.130;2023-01-25T11:35:11;29.40;;;19.23;;
5684;SDS011;2865;53.114;9.130;2023-01-25T11:37:43;28.80;;;18.73;;
5684;SDS011;2865;53.114;9.130;2023-01-25T11:40:44;27.83;;;18.37;;
5684;SDS011;2865;53.114;9.130;2023-01-25T11:48:51;30.77;;;19.37;;
5684;SDS011;2865;53.114;9.130;2023-01-25T11:51:05;30.33;;;20.37;;
5684;SDS011;2865;53.114;9.130;2023-01-25T11:53:34;30.03;;;19.17;;
5684;SDS011;2865;53.114;9.130;2023-01-25T11:56:04;25.00;;;17.50;;
5684;SDS011;2865;53.114;9.130;2023-01-25T12:01:37;31.17;;;20.37;;
5684;SDS011;2865;53.114;9.130;2023-01-25T12:04:12;28.53;;;19.43;;
5684;SDS011;2865;53.114;9.130;2023-01-25T12:06:40;30.30;;;19.30;;
5684;SDS011;2865;53.114;9.130;2023-01-25T12:09:24;33.15;;;19.55;;
5684;SDS011;2865;53.114;9.130;2023-01-25T12:12:23;33.90;;;19.87;;
5684;SDS011;2865;53.114;9.130;2023-01-25T12:15:00;31.83;;;20.10;;
5684;SDS011;2865;53.114;9.130;2023-01-25T12:17:30;31.10;;;19.87;;
5684;SDS011;2865;53.114;9.130;2023-01-25T12:20:08;29.40;;;19.40;;
5684;SDS011;2865;53.114;9.130;2023-01-25T12:22:37;30.83;;;19.53;;
5684;SDS011;2865;53.114;9.130;2023-01-25T12:25:16;32.33;;;20.47;;
5684;SDS011;2865;53.114;9.130;2023-01-25T12:27:49;31.10;;;19.57;;
5684;SDS011;2865;53.114;9.130;2023-01-25T12:30:21;33.67;;;19.67;;
5684;SDS011;2865;53.114;9.130;2023-01-25T12:32:47;29.00;;;19.40;;
5684;SDS011;2865;53.114;9.130;2023-01-25T12:35:16;27.02;;;18.75;;
5684;SDS011;2865;53.114;9.130;2023-01-25T12:37:43;36.20;;;19.95;;
5684;SDS011;2865;53.114;9.130;2023-01-25T12:40:10;35.60;;;21.03;;
5684;SDS011;2865;53.114;9.130;2023-01-25T12:42:51;33.37;;;20.30;;
5684;SDS011;2865;53.114;9.130;2023-01-25T12:45:16;32.10;;;18.97;;
5684;SDS011;2865;53.114;9.130;2023-01-25T12:47:45;28.60;;;18.43;;
5684;SDS011;2865;53.114;9.130;2023-01-25T12:50:16;36.13;;;20.25;;
5684;SDS011;2865;53.114;9.130;2023-01-25T12:52:52;29.37;;;19.00;;
5684;SDS011;2865;53.114;9.130;2023-01-25T12:55:17;35.47;;;21.73;;
5684;SDS011;2865;53.114;9.130;2023-01-25T12:57:44;31.90;;;20.13;;
5684;SDS011;2865;53.114;9.130;2023-01-25T13:02:49;32.63;;;20.23;;
5684;SDS011;2865;53.114;9.130;2023-01-25T13:05:18;29.23;;;18.57;;
5684;SDS011;2865;53.114;9.130;2023-01-25T13:07:54;28.87;;;18.90;;
5684;SDS011;2865;53.114;9.130;2023-01-25T13:10:18;30.50;;;18.40;;
5684;SDS011;2865;53.114;9.130;2023-01-25T13:17:52;28.50;;;19.00;;
5684;SDS011;2865;53.114;9.130;2023-01-25T13:22:56;32.70;;;19.40;;
5684;SDS011;2865;53.114;9.130;2023-01-25T13:25:22;30.40;;;19.20;;
5684;SDS011;2865;53.114;9.130;2023-01-25T13:27:47;34.67;;;18.93;;
5684;SDS011;2865;53.114;9.130;2023-01-25T13:30:24;28.83;;;17.17;;
5684;SDS011;2865;53.114;9.130;2023-01-25T13:32:54;33.43;;;19.57;;
5684;SDS011;2865;53.114;9.130;2023-01-25T13:35:24;29.60;;;17.27;;
5684;SDS011;2865;53.114;9.130;2023-01-25T13:37:58;30.30;;;18.10;;
5684;SDS011;2865;53.114;9.130;2023-01-25T13:40:27;34.85;;;20.05;;
5684;SDS011;2865;53.114;9.130;2023-01-25T13:42:57;40.90;;;18.77;;
5684;SDS011;2865;53.114;9.130;2023-01-25T13:45:25;34.70;;;19.07;;
5684;SDS011;2865;53.114;9.130;2023-01-25T13:50:24;29.73;;;17.37;;
5684;SDS011;2865;53.114;9.130;2023-01-25T13:52:54;44.17;;;23.27;;
5684;SDS011;2865;53.114;9.130;2023-01-25T13:55:22;45.60;;;22.13;;
5684;SDS011;2865;53.114;9.130;2023-01-25T13:57:48;38.23;;;22.37;;
5684;SDS011;2865;53.114;9.130;2023-01-25T14:00:14;35.73;;;21.63;;
5684;SDS011;2865;53.114;9.130;2023-01-25T14:02:41;33.87;;;21.53;;
5684;SDS011;2865;53.114;9.130;2023-01-25T14:05:14;33.97;;;21.73;;
5684;SDS011;2865;53.114;9.130;2023-01-25T14:07:32;34.03;;;19.47;;
5684;SDS011;2865;53.114;9.130;2023-01-25T14:09:59;33.97;;;19.80;;
5684;SDS011;2865;53.114;9.130;2023-01-25T14:12:38;38.37;;;22.90;;
5684;SDS011;2865;53.114;9.130;2023-01-25T14:15:25;39.13;;;22.62;;
5684;SDS011;2865;53.114;9.130;2023-01-25T14:20:35;35.73;;;20.80;;
5684;SDS011;2865;53.114;9.130;2023-01-25T14:23:00;45.30;;;24.10;;
5684;SDS011;2865;53.114;9.130;2023-01-25T14:25:25;35.80;;;22.07;;
5684;SDS011;2865;53.114;9.130;2023-01-25T14:27:52;38.00;;;22.67;;
5684;SDS011;2865;53.114;9.130;2023-01-25T14:30:19;39.15;;;22.00;;
5684;SDS011;2865;53.114;9.130;2023-01-25T14:32:45;38.47;;;21.97;;
5684;SDS011;2865;53.114;9.130;2023-01-25T14:37:48;41.67;;;23.53;;
5684;SDS011;2865;53.114;9.130;2023-01-25T14:40:15;39.13;;;22.63;;
5684;SDS011;2865;53.114;9.130;2023-01-25T14:42:39;37.50;;;21.40;;
5684;SDS011;2865;53.114;9.130;2023-01-25T14:45:05;33.77;;;19.90;;
5684;SDS011;2865;53.114;9.130;2023-01-25T14:47:31;38.00;;;23.20;;
5684;SDS011;2865;53.114;9.130;2023-01-25T14:50:33;41.73;;;23.03;;
5684;SDS011;2865;53.114;9.130;2023-01-25T14:52:47;43.03;;;25.67;;
5684;SDS011;2865;53.114;9.130;2023-01-25T14:55:12;38.03;;;22.67;;
5684;SDS011;2865;53.114;9.130;2023-01-25T14:57:39;36.40;;;21.10;;
5684;SDS011;2865;53.114;9.130;2023-01-25T15:00:06;38.13;;;23.08;;
5684;SDS011;2865;53.114;9.130;2023-01-25T15:02:38;39.33;;;23.65;;
5684;SDS011;2865;53.114;9.130;2023-01-25T15:05:19;38.58;;;24.52;;
5684;SDS011;2865;53.114;9.130;2023-01-25T15:07:46;43.42;;;25.62;;
5684;SDS011;2865;53.114;9.130;2023-01-25T15:12:54;41.83;;;24.50;;
5684;SDS011;2865;53.114;9.130;2023-01-25T15:15:21;44.10;;;26.05;;
5684;SDS011;2865;53.114;9.130;2023-01-25T15:17:47;42.30;;;24.20;;
5684;SDS011;2865;53.114;9.130;2023-01-25T15:22:50;39.22;;;23.40;;
5684;SDS011;2865;53.114;9.130;2023-01-25T15:25:15;35.10;;;22.57;;
5684;SDS011;2865;53.114;9.130;2023-01-25T15:27:41;45.07;;;26.57;;
5684;SDS011;2865;53.114;9.130;2023-01-25T15:30:11;40.97;;;25.27;;
5684;SDS011;2865;53.114;9.130;2023-01-25T15:32:39;42.27;;;24.40;;
5684;SDS011;2865;53.114;9.130;2023-01-25T15:35:11;43.50;;;24.53;;
5684;SDS011;2865;53.114;9.130;2023-01-25T15:37:36;40.75;;;23.50;;